createdAt,value
2022-08-25T00:00:13.488Z,18.72
2022-08-25T00:02:40.319Z,18.60
2022-08-25T00:05:07.589Z,18.63
2022-08-25T00:07:36.818Z,18.57
2022-08-25T00:10:06.362Z,18.65
2022-08-25T00:12:33.239Z,18.66
2022-08-25T00:14:59.821Z,18.71
2022-08-25T00:17:27.527Z,18.79
2022-08-25T00:19:54.033Z,18.68
2022-08-25T00:22:20.478Z,18.73
2022-08-25T00:24:46.935Z,18.63
2022-08-25T00:27:13.404Z,18.49
2022-08-25T00:29:39.954Z,18.44
2022-08-25T00:32:06.691Z,18.48
2022-08-25T00:34:39.518Z,18.57
2022-08-25T00:37:09.143Z,18.61
2022-08-25T00:39:36.650Z,18.50
2022-08-25T00:42:04.681Z,18.43
2022-08-25T00:44:38.459Z,18.33
2022-08-25T00:47:06.656Z,18.30
2022-08-25T00:49:37.389Z,18.24
2022-08-25T00:52:25.658Z,18.28
2022-08-25T00:54:56.575Z,18.33
2022-08-25T00:57:34.601Z,18.27
2022-08-25T01:00:05.777Z,18.23
2022-08-25T01:02:32.292Z,18.19
2022-08-25T01:04:58.823Z,18.21
2022-08-25T01:07:25.392Z,18.23
2022-08-25T01:09:53.167Z,18.28
2022-08-25T01:12:20.451Z,18.35
2022-08-25T01:14:48.885Z,18.40
2022-08-25T01:17:16.021Z,18.41
2022-08-25T01:19:42.681Z,18.54
2022-08-25T01:22:11.989Z,18.37
2022-08-25T01:24:42.559Z,18.19
2022-08-25T01:27:09.832Z,18.20
2022-08-25T01:29:37.835Z,18.20
2022-08-25T01:32:08.082Z,18.17
2022-08-25T01:34:37.593Z,18.11
2022-08-25T01:37:05.282Z,18.01
2022-08-25T01:39:36.812Z,17.97
2022-08-25T01:42:04.328Z,17.76
2022-08-25T01:44:32.852Z,17.72
2022-08-25T01:46:59.369Z,17.68
2022-08-25T01:49:25.855Z,17.62
2022-08-25T01:51:57.025Z,17.65
2022-08-25T01:54:23.912Z,17.62
2022-08-25T01:56:50.396Z,17.69
2022-08-25T01:59:21.679Z,17.72
2022-08-25T02:01:51.806Z,17.63
2022-08-25T02:04:29.365Z,17.51
2022-08-25T02:06:55.935Z,17.51
2022-08-25T02:09:22.433Z,17.59
2022-08-25T02:11:48.908Z,17.59
2022-08-25T02:14:16.885Z,17.51
2022-08-25T02:16:47.687Z,17.55
2022-08-25T02:19:15.582Z,17.49
2022-08-25T02:21:42.394Z,17.40
2022-08-25T02:24:09.414Z,17.40
2022-08-25T02:26:36.431Z,17.39
2022-08-25T02:29:05.276Z,17.38
2022-08-25T02:31:31.979Z,17.46
2022-08-25T02:33:58.569Z,17.46
2022-08-25T02:36:25.223Z,17.46
2022-08-25T02:38:52.744Z,17.44
2022-08-25T02:41:23.753Z,17.40
2022-08-25T02:43:57.875Z,17.30
2022-08-25T02:46:24.966Z,17.38
2022-08-25T02:48:53.091Z,17.32
2022-08-25T02:51:22.288Z,17.24
2022-08-25T02:53:49.063Z,17.23
2022-08-25T02:56:18.190Z,17.19
2022-08-25T02:58:45.876Z,17.19
2022-08-25T03:01:13.078Z,17.17
2022-08-25T03:03:41.218Z,17.11
2022-08-25T03:06:12.574Z,17.06
2022-08-25T03:08:39.576Z,17.01
2022-08-25T03:11:06.219Z,16.96
2022-08-25T03:13:33.305Z,16.94
2022-08-25T03:16:01.463Z,16.94
2022-08-25T03:18:30.171Z,16.87
2022-08-25T03:20:57.666Z,16.82
2022-08-25T03:23:24.385Z,16.83
2022-08-25T03:26:09.503Z,16.84
2022-08-25T03:28:36.452Z,16.81
2022-08-25T03:31:03.018Z,16.80
2022-08-25T03:33:30.978Z,16.83
2022-08-25T03:35:58.279Z,16.76
2022-08-25T03:38:25.702Z,16.80
2022-08-25T03:40:53.144Z,16.74
2022-08-25T03:43:20.623Z,16.75
2022-08-25T03:45:47.959Z,16.81
2022-08-25T03:48:15.445Z,16.88
2022-08-25T03:50:51.309Z,16.78
2022-08-25T03:53:19.257Z,16.68
2022-08-25T03:55:45.724Z,16.69
2022-08-25T03:58:12.365Z,16.67
2022-08-25T04:00:39.069Z,16.52
2022-08-25T04:03:06.023Z,16.47
2022-08-25T04:05:33.015Z,16.44
2022-08-25T04:08:01.817Z,16.46
2022-08-25T04:10:28.903Z,16.49
2022-08-25T04:12:55.953Z,16.62
2022-08-25T04:15:23.972Z,16.67
2022-08-25T04:17:58.694Z,16.68
2022-08-25T04:20:25.245Z,16.89
2022-08-25T04:22:51.708Z,16.99
2022-08-25T04:25:18.255Z,17.01
2022-08-25T04:27:44.756Z,17.04
2022-08-25T04:30:11.844Z,17.33
2022-08-25T04:32:38.308Z,17.61
2022-08-25T04:35:05.396Z,17.66
2022-08-25T04:37:33.335Z,17.87
2022-08-25T04:40:00.218Z,17.69
2022-08-25T04:42:27.277Z,17.71
2022-08-25T04:44:54.492Z,17.60
2022-08-25T04:47:21.168Z,17.80
2022-08-25T04:49:47.853Z,17.66
2022-08-25T04:52:14.815Z,17.78
2022-08-25T04:54:42.154Z,17.87
2022-08-25T04:57:08.656Z,17.98
2022-08-25T04:59:35.176Z,18.05
2022-08-25T05:02:03.205Z,18.14
2022-08-25T05:04:30.299Z,18.13
2022-08-25T05:06:57.388Z,18.25
2022-08-25T05:09:25.214Z,18.35
2022-08-25T05:11:52.365Z,18.37
2022-08-25T05:14:22.174Z,18.40
2022-08-25T05:16:52.408Z,18.68
2022-08-25T05:19:19.460Z,18.58
2022-08-25T05:21:46.014Z,18.58
2022-08-25T05:24:12.538Z,18.56
2022-08-25T05:26:39.733Z,18.45
2022-08-25T05:29:06.832Z,18.40
2022-08-25T05:31:36.360Z,18.47
2022-08-25T05:34:07.397Z,18.50
2022-08-25T05:36:34.364Z,18.91
2022-08-25T05:39:00.912Z,18.94
2022-08-25T05:41:30.224Z,19.01
2022-08-25T05:43:57.172Z,19.12
2022-08-25T05:46:24.208Z,19.15
2022-08-25T05:48:51.202Z,19.24
2022-08-25T05:51:18.822Z,19.27
2022-08-25T05:53:48.079Z,19.37
2022-08-25T05:56:15.284Z,19.45
2022-08-25T05:58:42.987Z,19.52
2022-08-25T06:01:28.575Z,19.52
2022-08-25T06:03:55.232Z,19.74
2022-08-25T06:06:25.608Z,19.89
2022-08-25T06:08:52.099Z,19.89
2022-08-25T06:11:19.302Z,19.98
2022-08-25T06:13:46.435Z,20.07
2022-08-25T06:16:13.007Z,20.16
2022-08-25T06:18:39.515Z,20.98
2022-08-25T06:21:14.353Z,20.72
2022-08-25T06:23:41.712Z,20.38
2022-08-25T06:26:11.008Z,20.24
2022-08-25T06:28:44.647Z,20.35
2022-08-25T06:31:11.209Z,20.17
2022-08-25T06:33:37.937Z,20.20
2022-08-25T06:36:04.656Z,20.08
2022-08-25T06:38:31.553Z,20.17
2022-08-25T06:40:58.079Z,20.08
2022-08-25T06:43:24.926Z,20.39
2022-08-25T06:45:51.449Z,20.11
2022-08-25T06:48:17.895Z,20.24
2022-08-25T06:50:44.764Z,20.61
2022-08-25T06:53:11.413Z,20.51
2022-08-25T06:55:37.911Z,20.81
2022-08-25T06:58:05.441Z,20.96
2022-08-25T07:00:33.163Z,20.78
2022-08-25T07:03:01.403Z,20.89
2022-08-25T07:05:42.617Z,21.06
2022-08-25T07:08:11.859Z,21.07
2022-08-25T07:10:38.890Z,21.25
2022-08-25T07:13:05.360Z,21.42
2022-08-25T07:15:31.835Z,21.75
2022-08-25T07:17:58.427Z,21.58
2022-08-25T07:22:57.850Z,21.16
2022-08-25T07:25:24.436Z,21.39
2022-08-25T07:27:50.918Z,21.38
2022-08-25T07:30:18.551Z,21.58
2022-08-25T07:32:45.296Z,21.88
2022-08-25T07:35:15.412Z,22.01
2022-08-25T07:37:49.612Z,22.07
2022-08-25T07:40:23.381Z,22.12
2022-08-25T07:42:52.215Z,22.28
2022-08-25T07:45:21.010Z,22.05
2022-08-25T07:47:48.453Z,22.29
2022-08-25T07:50:18.778Z,22.48
2022-08-25T07:52:53.858Z,22.75
2022-08-25T07:55:23.487Z,22.71
2022-08-25T07:57:54.016Z,22.70
2022-08-25T08:00:23.153Z,22.50
2022-08-25T08:02:51.254Z,22.60
2022-08-25T08:05:17.764Z,22.98
2022-08-25T08:07:44.432Z,23.48
2022-08-25T08:13:00.722Z,23.56
2022-08-25T08:15:29.794Z,23.29
2022-08-25T08:17:59.793Z,23.21
2022-08-25T08:20:26.773Z,23.78
2022-08-25T08:22:53.467Z,23.63
2022-08-25T08:25:24.276Z,23.12
2022-08-25T08:27:55.140Z,23.25
2022-08-25T08:30:25.839Z,23.51
2022-08-25T08:33:09.280Z,23.04
2022-08-25T08:35:36.943Z,23.06
2022-08-25T08:38:03.800Z,23.05
2022-08-25T08:41:07.877Z,23.30
2022-08-25T08:43:35.463Z,23.85
2022-08-25T08:46:04.112Z,23.53
2022-08-25T08:48:52.520Z,23.79
2022-08-25T08:51:32.911Z,23.92
2022-08-25T08:54:15.576Z,24.12
2022-08-25T08:56:48.085Z,23.78
2022-08-25T08:59:19.543Z,24.13
2022-08-25T09:01:53.323Z,24.36
2022-08-25T09:04:26.235Z,24.12
2022-08-25T09:06:55.256Z,24.10
2022-08-25T09:09:35.569Z,24.40
2022-08-25T09:12:02.639Z,24.44
2022-08-25T09:14:57.226Z,24.63
2022-08-25T09:17:42.831Z,24.48
2022-08-25T09:20:29.329Z,24.79
2022-08-25T09:23:23.911Z,24.67
2022-08-25T09:26:13.396Z,24.66
2022-08-25T09:28:51.244Z,24.39
2022-08-25T09:31:32.012Z,24.05
2022-08-25T09:34:02.165Z,24.02
2022-08-25T09:36:30.144Z,23.98
2022-08-25T09:38:57.866Z,24.20
2022-08-25T09:41:44.145Z,24.56
2022-08-25T09:44:22.596Z,24.37
2022-08-25T09:47:15.363Z,24.23
2022-08-25T09:49:49.125Z,24.41
2022-08-25T09:52:31.843Z,24.58
2022-08-25T09:55:23.148Z,24.71
2022-08-25T09:57:58.261Z,24.95
2022-08-25T10:00:33.744Z,25.26
2022-08-25T10:03:22.524Z,25.90
2022-08-25T10:06:05.656Z,26.52
2022-08-25T10:08:40.009Z,26.75
2022-08-25T10:11:14.735Z,26.58
2022-08-25T10:13:46.843Z,27.09
2022-08-25T10:16:30.837Z,27.13
2022-08-25T10:19:13.824Z,27.05
2022-08-25T10:21:43.685Z,26.62
2022-08-25T10:24:13.168Z,26.90
2022-08-25T10:27:01.756Z,27.32
2022-08-25T10:29:41.389Z,26.96
2022-08-25T10:32:18.234Z,26.64
2022-08-25T10:34:56.226Z,27.02
2022-08-25T10:37:27.751Z,27.30
2022-08-25T10:40:08.606Z,26.90
2022-08-25T10:43:02.339Z,27.23
2022-08-25T10:45:44.043Z,27.32
2022-08-25T10:48:32.408Z,27.19
2022-08-25T10:51:20.431Z,27.80
2022-08-25T10:54:18.651Z,27.94
2022-08-25T10:57:32.375Z,27.80
2022-08-25T11:00:31.463Z,29.12
2022-08-25T11:03:07.622Z,30.88
2022-08-25T11:05:40.537Z,31.23
2022-08-25T11:08:34.079Z,31.23
2022-08-25T11:11:21.892Z,31.11
2022-08-25T11:13:57.417Z,31.76
2022-08-25T11:16:38.674Z,32.19
2022-08-25T11:19:20.333Z,32.62
2022-08-25T11:21:54.056Z,31.68
2022-08-25T11:24:40.388Z,31.88
2022-08-25T11:27:15.748Z,32.33
2022-08-25T11:29:53.646Z,33.45
2022-08-25T11:32:22.501Z,33.39
2022-08-25T11:34:49.406Z,34.06
2022-08-25T11:37:27.940Z,34.36
2022-08-25T11:40:32.618Z,32.26
2022-08-25T11:43:21.107Z,32.91
2022-08-25T11:46:28.310Z,33.82
2022-08-25T11:49:08.627Z,34.02
2022-08-25T11:51:42.192Z,34.80
2022-08-25T11:54:29.734Z,35.16
2022-08-25T11:56:59.018Z,35.59
2022-08-25T11:59:50.250Z,35.05
2022-08-25T12:02:37.426Z,34.50
2022-08-25T12:05:18.968Z,35.15
2022-08-25T12:08:12.393Z,33.96
2022-08-25T12:11:11.122Z,33.83
2022-08-25T12:13:49.358Z,31.72
2022-08-25T12:16:35.822Z,32.24
2022-08-25T12:19:26.004Z,29.40
2022-08-25T12:21:58.646Z,30.20
2022-08-25T12:24:48.744Z,29.85
2022-08-25T12:28:26.356Z,31.13
2022-08-25T12:30:58.896Z,33.58
2022-08-25T12:33:40.276Z,32.91
2022-08-25T12:36:11.170Z,33.31
2022-08-25T12:38:46.309Z,32.13
2022-08-25T12:41:30.945Z,31.68
2022-08-25T12:44:52.184Z,34.28
2022-08-25T12:47:27.401Z,33.48
2022-08-25T12:50:32.672Z,32.75
2022-08-25T12:53:42.951Z,31.26
2022-08-25T12:56:31.382Z,32.67
2022-08-25T12:59:15.803Z,31.66
2022-08-25T13:01:55.752Z,30.90
2022-08-25T13:04:41.549Z,30.08
2022-08-25T13:07:13.120Z,31.92
2022-08-25T13:09:45.462Z,32.49
2022-08-25T13:12:18.958Z,33.61
2022-08-25T13:14:52.049Z,33.23
2022-08-25T13:17:31.239Z,33.13
2022-08-25T13:20:24.899Z,34.12
2022-08-25T13:22:57.722Z,32.91
2022-08-25T13:25:34.579Z,31.25
2022-08-25T13:28:06.339Z,32.60
2022-08-25T13:30:36.008Z,32.53
2022-08-25T13:33:23.742Z,34.11
2022-08-25T13:36:13.073Z,34.86
2022-08-25T13:38:40.065Z,37.06
2022-08-25T13:41:08.278Z,36.72
2022-08-25T13:43:39.621Z,35.05
2022-08-25T13:46:07.876Z,34.04
2022-08-25T13:48:40.185Z,32.99
2022-08-25T13:51:31.384Z,33.80
2022-08-25T13:54:23.213Z,33.31
2022-08-25T13:56:51.545Z,34.72
2022-08-25T13:59:35.151Z,34.80
2022-08-25T14:02:08.255Z,35.06
2022-08-25T14:04:51.764Z,34.85
2022-08-25T14:07:34.213Z,36.10
2022-08-25T14:10:11.247Z,36.87
2022-08-25T14:12:42.289Z,37.17
2022-08-25T14:15:17.794Z,35.94
2022-08-25T14:18:14.027Z,33.15
2022-08-25T14:20:47.949Z,34.13
2022-08-25T14:23:19.189Z,34.81
2022-08-25T14:25:46.699Z,36.38
2022-08-25T14:28:18.198Z,35.16
2022-08-25T14:30:51.824Z,34.95
2022-08-25T14:33:21.804Z,36.47
2022-08-25T14:35:52.221Z,35.49
2022-08-25T14:38:21.223Z,34.27
2022-08-25T14:40:49.764Z,34.41
2022-08-25T14:43:17.532Z,35.53
2022-08-25T14:45:48.079Z,34.99
2022-08-25T14:48:25.922Z,36.32
2022-08-25T14:50:58.919Z,37.71
2022-08-25T14:53:27.191Z,36.97
2022-08-25T14:55:59.269Z,37.27
2022-08-25T14:58:28.032Z,37.63
2022-08-25T15:01:01.121Z,38.98
2022-08-25T15:03:36.172Z,39.39
2022-08-25T15:06:04.274Z,38.66
2022-08-25T15:08:49.986Z,38.31
2022-08-25T15:11:16.687Z,38.52
2022-08-25T15:13:49.590Z,38.36
2022-08-25T15:16:23.546Z,39.24
2022-08-25T15:18:50.524Z,38.74
2022-08-25T15:21:18.496Z,38.08
2022-08-25T15:23:45.261Z,38.60
2022-08-25T15:26:13.131Z,38.63
2022-08-25T15:28:44.681Z,38.49
2022-08-25T15:31:12.586Z,39.53
2022-08-25T15:33:39.536Z,39.06
2022-08-25T15:36:15.296Z,38.25
2022-08-25T15:38:44.336Z,36.75
2022-08-25T15:41:11.757Z,37.55
2022-08-25T15:43:39.292Z,37.34
2022-08-25T15:46:06.446Z,39.46
2022-08-25T15:48:35.936Z,39.02
2022-08-25T15:51:02.736Z,39.22
2022-08-25T15:53:33.984Z,38.77
2022-08-25T15:56:06.204Z,38.93
2022-08-25T15:58:35.375Z,37.77
2022-08-25T16:01:02.401Z,38.29
2022-08-25T16:03:28.938Z,38.20
2022-08-25T16:05:55.528Z,38.60
2022-08-25T16:08:23.459Z,38.06
2022-08-25T16:10:51.573Z,37.91
2022-08-25T16:13:18.598Z,37.92
2022-08-25T16:15:54.198Z,37.58
2022-08-25T16:18:22.835Z,38.96
2022-08-25T16:20:50.167Z,38.37
2022-08-25T16:23:17.344Z,37.77
2022-08-25T16:25:46.468Z,37.61
2022-08-25T16:28:14.891Z,37.66
2022-08-25T16:30:52.507Z,37.67
2022-08-25T16:33:20.426Z,37.67
2022-08-25T16:35:47.419Z,37.30
2022-08-25T16:38:15.782Z,36.58
2022-08-25T16:40:43.309Z,37.07
2022-08-25T16:43:10.488Z,36.39
2022-08-25T16:45:37.424Z,36.25
2022-08-25T16:48:05.750Z,35.90
2022-08-25T16:50:34.527Z,36.66
2022-08-25T16:53:34.083Z,36.17
2022-08-25T16:56:03.971Z,35.60
2022-08-25T16:58:33.278Z,35.21
2022-08-25T17:01:12.670Z,34.83
2022-08-25T17:03:44.140Z,34.83
2022-08-25T17:06:14.105Z,34.82
2022-08-25T17:08:41.622Z,34.84
2022-08-25T17:11:17.874Z,34.72
2022-08-25T17:13:49.771Z,34.47
2022-08-25T17:16:17.922Z,34.00
2022-08-25T17:18:47.760Z,34.64
2022-08-25T17:21:24.779Z,33.79
2022-08-25T17:23:53.103Z,33.61
2022-08-25T17:26:20.392Z,33.03
2022-08-25T17:28:54.997Z,31.70
2022-08-25T17:31:22.382Z,31.86
2022-08-25T17:33:48.952Z,31.41
2022-08-25T17:36:17.345Z,31.42
2022-08-25T17:38:45.138Z,30.82
2022-08-25T17:41:12.159Z,30.47
2022-08-25T17:43:41.299Z,30.15
2022-08-25T17:46:08.824Z,28.45
2022-08-25T17:48:36.644Z,27.35
2022-08-25T17:51:03.461Z,26.30
2022-08-25T17:53:30.711Z,25.82
2022-08-25T17:56:03.159Z,25.42
2022-08-25T17:58:30.295Z,24.99
2022-08-25T18:00:57.924Z,24.63
2022-08-25T18:03:25.470Z,24.66
2022-08-25T18:05:52.488Z,24.12
2022-08-25T18:08:19.605Z,23.57
2022-08-25T18:10:58.651Z,23.51
2022-08-25T18:13:26.648Z,23.28
2022-08-25T18:15:54.995Z,23.00
2022-08-25T18:18:21.510Z,23.07
2022-08-25T18:20:51.079Z,22.55
2022-08-25T18:23:19.654Z,22.46
2022-08-25T18:25:48.397Z,22.11
2022-08-25T18:28:14.950Z,22.17
2022-08-25T18:30:41.503Z,22.10
2022-08-25T18:33:08.689Z,21.78
2022-08-25T18:35:35.164Z,21.89
2022-08-25T18:38:20.155Z,21.88
2022-08-25T18:40:47.696Z,21.77
2022-08-25T18:43:14.620Z,21.60
2022-08-25T18:45:44.435Z,21.45
2022-08-25T18:48:11.433Z,21.49
2022-08-25T18:50:41.028Z,21.29
2022-08-25T18:53:09.442Z,21.43
2022-08-25T18:55:37.441Z,21.45
2022-08-25T18:58:05.842Z,21.25
2022-08-25T19:00:34.294Z,21.35
2022-08-25T19:03:01.664Z,21.47
2022-08-25T19:05:32.511Z,20.98
2022-08-25T19:08:05.982Z,21.03
2022-08-25T19:10:33.726Z,20.91
2022-08-25T19:13:08.128Z,20.82
2022-08-25T19:15:36.185Z,20.70
2022-08-25T19:18:06.811Z,20.59
2022-08-25T19:20:36.938Z,20.52
2022-08-25T19:23:03.624Z,20.54
2022-08-25T19:25:35.021Z,20.67
2022-08-25T19:28:07.625Z,20.57
2022-08-25T19:30:39.327Z,20.53
2022-08-25T19:33:42.270Z,20.33
2022-08-25T19:36:06.280Z,20.39
2022-08-25T19:38:35.876Z,20.23
2022-08-25T19:41:08.961Z,20.33
2022-08-25T19:43:56.632Z,20.37
2022-08-25T19:46:32.871Z,20.37
2022-08-25T19:49:08.050Z,20.35
2022-08-25T19:51:37.327Z,20.45
2022-08-25T19:54:04.399Z,20.20
2022-08-25T19:56:32.489Z,20.11
2022-08-25T19:58:59.684Z,19.95
2022-08-25T20:01:26.192Z,20.06
2022-08-25T20:03:52.755Z,20.10
2022-08-25T20:06:19.284Z,19.98
2022-08-25T20:08:45.936Z,19.96
2022-08-25T20:11:12.500Z,19.86
2022-08-25T20:13:39.088Z,20.00
2022-08-25T20:16:05.739Z,19.84
2022-08-25T20:18:32.593Z,19.92
2022-08-25T20:20:59.288Z,20.04
2022-08-25T20:23:44.362Z,20.04
2022-08-25T20:26:11.000Z,20.12
2022-08-25T20:28:37.721Z,20.08
2022-08-25T20:31:04.339Z,19.87
2022-08-25T20:33:32.839Z,19.85
2022-08-25T20:35:59.642Z,19.75
2022-08-25T20:38:29.830Z,19.80
2022-08-25T20:40:56.408Z,19.68
2022-08-25T20:43:23.153Z,19.67
2022-08-25T20:45:58.314Z,19.60
2022-08-25T20:48:27.500Z,19.61
2022-08-25T20:50:57.288Z,19.61
2022-08-25T20:53:25.441Z,19.65
2022-08-25T20:55:51.961Z,19.68
2022-08-25T20:58:18.818Z,19.70
2022-08-25T21:00:45.712Z,19.69
2022-08-25T21:03:12.407Z,19.75
2022-08-25T21:05:41.055Z,19.74
2022-08-25T21:08:08.081Z,19.72
2022-08-25T21:10:34.849Z,19.69
2022-08-25T21:13:01.464Z,19.65
2022-08-25T21:15:28.035Z,19.64
2022-08-25T21:17:55.350Z,19.61
2022-08-25T21:20:26.239Z,19.62
2022-08-25T21:22:53.262Z,19.56
2022-08-25T21:25:20.370Z,19.54
2022-08-25T21:27:47.970Z,19.61
2022-08-25T21:30:16.395Z,19.61
2022-08-25T21:32:53.288Z,19.56
2022-08-25T21:35:21.124Z,19.54
2022-08-25T21:37:49.257Z,19.52
2022-08-25T21:40:20.863Z,19.50
2022-08-25T21:42:47.420Z,19.42
2022-08-25T21:45:13.919Z,19.44
2022-08-25T21:47:42.364Z,19.58
2022-08-25T21:50:13.028Z,19.49
2022-08-25T21:52:39.550Z,19.48
2022-08-25T21:55:09.046Z,19.51
2022-08-25T21:57:43.809Z,19.51
2022-08-25T22:00:11.559Z,19.51
2022-08-25T22:02:38.457Z,19.53
2022-08-25T22:05:09.275Z,19.56
2022-08-25T22:07:40.407Z,19.53
2022-08-25T22:10:09.475Z,19.52
2022-08-25T22:12:43.483Z,19.61
2022-08-25T22:15:12.525Z,19.55
2022-08-25T22:17:40.484Z,19.48
2022-08-25T22:20:08.294Z,19.49
2022-08-25T22:22:35.910Z,19.48
2022-08-25T22:25:03.272Z,19.42
2022-08-25T22:27:30.283Z,19.45
2022-08-25T22:29:57.277Z,19.50
2022-08-25T22:32:23.838Z,19.47
2022-08-25T22:34:50.433Z,19.47
2022-08-25T22:37:17.927Z,19.50
2022-08-25T22:39:45.445Z,19.66
2022-08-25T22:42:12.250Z,19.62
2022-08-25T22:44:39.933Z,19.46
2022-08-25T22:47:06.823Z,19.36
2022-08-25T22:49:35.359Z,19.37
2022-08-25T22:52:02.534Z,19.54
2022-08-25T22:54:29.837Z,19.60
2022-08-25T22:56:56.449Z,19.63
2022-08-25T22:59:22.953Z,19.61
2022-08-25T23:01:52.280Z,19.52
2022-08-25T23:04:19.225Z,19.37
2022-08-25T23:06:46.264Z,19.33
2022-08-25T23:09:13.832Z,19.41
2022-08-25T23:11:40.875Z,19.49
2022-08-25T23:14:10.950Z,19.43
2022-08-25T23:16:39.395Z,19.44
2022-08-25T23:19:09.714Z,19.39
2022-08-25T23:21:56.892Z,19.47
2022-08-25T23:24:29.150Z,19.36
2022-08-25T23:27:01.102Z,19.30
2022-08-25T23:29:28.663Z,19.28
2022-08-25T23:31:56.803Z,19.23
2022-08-25T23:34:24.583Z,19.35
2022-08-25T23:36:51.527Z,19.29
2022-08-25T23:39:18.088Z,19.25
2022-08-25T23:41:44.680Z,19.29
2022-08-25T23:44:17.117Z,19.21
2022-08-25T23:46:44.850Z,19.21
2022-08-25T23:49:12.379Z,19.14
2022-08-25T23:51:41.002Z,19.15
2022-08-25T23:54:11.724Z,19.14
2022-08-25T23:56:42.347Z,19.17
2022-08-25T23:59:12.902Z,19.19
